Time;durP1;ratioP1;P1;durP2;ratioP2;P2;SDS_P1;SDS_P2;PMS_P1;PMS_P2;Temp;Humidity;BMP_temperature;BMP_pressure;BME280_temperature;BME280_humidity;BME280_pressure;Samples;Min_cycle;Max_cycle;Signal;HPM_P1;HPM_P2
2022/03/19 00:00:45;;;;;;;15.25;3.65;;;;;;;;;;5053245;28;20423;-70
2022/03/19 00:03:12;;;;;;;18.33;4.53;;;;;;;;;;5049639;28;20052;-69
2022/03/19 00:05:38;;;;;;;11.15;3.40;;;;;;;;;;5071172;28;20090;-69
2022/03/19 00:08:05;;;;;;;12.18;3.70;;;;;;;;;;5062472;28;20048;-69
2022/03/19 00:10:31;;;;;;;16.02;3.47;;;;;;;;;;5070966;28;20043;-69
2022/03/19 00:13:01;;;;;;;16.63;3.90;;;;;;;;;;5054587;28;20044;-69
2022/03/19 00:15:27;;;;;;;18.35;3.80;;;;;;;;;;5054484;28;20094;-69
2022/03/19 00:17:54;;;;;;;16.13;3.63;;;;;;;;;;5054277;28;20436;-69
2022/03/19 00:20:21;;;;;;;12.90;3.83;;;;;;;;;;5072292;28;20565;-69
2022/03/19 00:22:47;;;;;;;17.27;3.40;;;;;;;;;;5072415;28;20041;-69
2022/03/19 00:25:13;;;;;;;17.48;3.78;;;;;;;;;;5072353;28;20461;-69
2022/03/19 00:27:42;;;;;;;17.58;3.45;;;;;;;;;;5071089;28;20089;-69
2022/03/19 00:30:09;;;;;;;18.88;3.88;;;;;;;;;;5065309;28;20029;-69
2022/03/19 00:32:35;;;;;;;9.73;2.90;;;;;;;;;;5053449;28;20044;-69
2022/03/19 00:35:01;;;;;;;12.38;3.60;;;;;;;;;;5071809;28;20055;-69
2022/03/19 00:37:27;;;;;;;16.60;3.50;;;;;;;;;;5061513;28;20040;-69
2022/03/19 00:39:53;;;;;;;11.50;3.08;;;;;;;;;;5052120;28;20036;-69
2022/03/19 00:42:20;;;;;;;11.27;2.83;;;;;;;;;;5071757;28;20049;-69
2022/03/19 00:44:47;;;;;;;16.35;3.60;;;;;;;;;;5071636;28;20106;-69
2022/03/19 00:47:13;;;;;;;14.48;3.35;;;;;;;;;;5070895;28;20059;-69
2022/03/19 00:49:39;;;;;;;17.00;3.75;;;;;;;;;;5070247;28;20048;-69
2022/03/19 00:52:06;;;;;;;9.85;2.90;;;;;;;;;;5041384;28;20040;-69
2022/03/19 00:54:32;;;;;;;16.52;3.00;;;;;;;;;;5071950;28;20508;-69
2022/03/19 00:56:58;;;;;;;15.48;3.33;;;;;;;;;;5036826;28;20040;-69
2022/03/19 00:59:24;;;;;;;15.80;3.20;;;;;;;;;;5053660;28;20044;-69
2022/03/19 01:01:50;;;;;;;8.70;2.72;;;;;;;;;;5071829;28;20041;-69
2022/03/19 01:04:16;;;;;;;10.80;2.88;;;;;;;;;;5060103;28;20455;-69
2022/03/19 01:06:42;;;;;;;15.68;3.40;;;;;;;;;;5062011;28;20041;-69
2022/03/19 01:09:08;;;;;;;15.82;3.10;;;;;;;;;;5050122;28;20047;-69
2022/03/19 01:11:34;;;;;;;14.55;3.25;;;;;;;;;;5050920;28;20045;-69
2022/03/19 01:14:00;;;;;;;16.48;3.33;;;;;;;;;;5051261;28;20404;-69
2022/03/19 01:16:27;;;;;;;14.02;4.47;;;;;;;;;;5051633;28;20513;-69
2022/03/19 01:18:53;;;;;;;15.43;4.35;;;;;;;;;;5055489;28;20374;-69
2022/03/19 01:21:19;;;;;;;18.63;3.50;;;;;;;;;;5057062;28;20097;-69
2022/03/19 01:23:45;;;;;;;11.68;2.90;;;;;;;;;;5056666;28;20317;-69
2022/03/19 01:26:12;;;;;;;14.60;3.40;;;;;;;;;;5057437;28;20048;-69
2022/03/19 01:28:38;;;;;;;11.45;3.40;;;;;;;;;;5074345;28;20037;-69
2022/03/19 01:31:04;;;;;;;13.82;3.20;;;;;;;;;;5054952;28;20040;-69
2022/03/19 01:33:30;;;;;;;15.55;3.40;;;;;;;;;;5054215;28;20047;-69
2022/03/19 01:35:56;;;;;;;16.35;3.45;;;;;;;;;;5054552;28;20041;-69
2022/03/19 01:38:22;;;;;;;17.27;3.60;;;;;;;;;;5073113;28;20540;-69
2022/03/19 01:40:49;;;;;;;14.43;3.47;;;;;;;;;;5072275;28;20074;-69
2022/03/19 01:43:15;;;;;;;14.05;3.22;;;;;;;;;;5055027;28;20044;-68
2022/03/19 01:45:41;;;;;;;12.57;3.50;;;;;;;;;;5055965;28;20076;-69
2022/03/19 01:48:07;;;;;;;14.85;3.80;;;;;;;;;;5054803;28;20511;-69
2022/03/19 01:50:33;;;;;;;18.33;3.72;;;;;;;;;;5055112;28;20102;-69
2022/03/19 01:52:59;;;;;;;11.10;3.15;;;;;;;;;;5073150;28;20043;-69
2022/03/19 01:55:27;;;;;;;15.40;3.55;;;;;;;;;;5055632;28;20380;-69
2022/03/19 01:57:53;;;;;;;14.77;3.78;;;;;;;;;;5072644;28;20066;-69
2022/03/19 02:00:23;;;;;;;9.48;2.83;;;;;;;;;;5072871;28;20040;-69
2022/03/19 02:02:50;;;;;;;14.18;3.45;;;;;;;;;;5055771;28;20040;-69
2022/03/19 02:05:17;;;;;;;15.57;3.95;;;;;;;;;;5055663;28;20044;-69
2022/03/19 02:07:44;;;;;;;18.58;4.10;;;;;;;;;;5054138;28;20476;-69
2022/03/19 02:10:11;;;;;;;17.58;3.70;;;;;;;;;;5054224;28;20614;-69
2022/03/19 02:12:38;;;;;;;14.77;3.83;;;;;;;;;;5055764;28;20040;-69
2022/03/19 02:15:05;;;;;;;21.30;3.67;;;;;;;;;;5054713;28;20040;-69
2022/03/19 02:17:31;;;;;;;16.30;3.42;;;;;;;;;;5055382;28;20078;-69
2022/03/19 02:19:57;;;;;;;14.10;3.60;;;;;;;;;;5072786;28;20093;-69
2022/03/19 02:22:24;;;;;;;18.42;3.97;;;;;;;;;;5056949;28;20037;-69
2022/03/19 02:27:36;;;;;;;17.75;3.75;;;;;;;;;;5054837;28;20078;-69
2022/03/19 02:30:03;;;;;;;14.98;4.00;;;;;;;;;;5052251;28;20497;-69
2022/03/19 02:32:29;;;;;;;17.13;4.10;;;;;;;;;;5072779;28;20028;-69
2022/03/19 02:34:55;;;;;;;19.02;3.50;;;;;;;;;;5054696;28;20075;-69
2022/03/19 02:37:22;;;;;;;14.35;3.97;;;;;;;;;;5054259;28;20048;-69
2022/03/19 02:39:48;;;;;;;15.98;4.32;;;;;;;;;;5071146;28;20060;-69
2022/03/19 02:42:16;;;;;;;15.27;3.80;;;;;;;;;;5072467;28;20489;-69
2022/03/19 02:44:42;;;;;;;18.08;4.25;;;;;;;;;;5071860;28;20086;-69
2022/03/19 02:47:08;;;;;;;13.80;3.55;;;;;;;;;;5053567;28;20057;-69
2022/03/19 02:49:35;;;;;;;12.30;3.60;;;;;;;;;;5072158;28;20127;-69
2022/03/19 02:52:01;;;;;;;14.32;3.83;;;;;;;;;;5071148;28;20049;-69
2022/03/19 02:54:29;;;;;;;15.35;3.85;;;;;;;;;;5054147;28;20094;-68
2022/03/19 02:56:55;;;;;;;14.77;3.70;;;;;;;;;;5070742;28;20101;-69
2022/03/19 02:59:23;;;;;;;17.38;3.70;;;;;;;;;;5053139;28;20041;-69
2022/03/19 03:01:50;;;;;;;10.50;3.63;;;;;;;;;;5052695;28;20041;-69
2022/03/19 03:04:16;;;;;;;15.05;4.07;;;;;;;;;;5072200;28;20090;-69
2022/03/19 03:06:43;;;;;;;14.68;3.80;;;;;;;;;;5071741;28;20109;-68
2022/03/19 03:09:09;;;;;;;14.57;3.75;;;;;;;;;;5036442;28;20036;-69
2022/03/19 03:11:36;;;;;;;14.43;3.70;;;;;;;;;;5072153;28;20044;-69
2022/03/19 03:14:02;;;;;;;20.52;4.25;;;;;;;;;;5036462;28;20032;-69
2022/03/19 03:16:29;;;;;;;13.15;5.40;;;;;;;;;;5073297;28;20079;-69
2022/03/19 03:18:56;;;;;;;14.23;3.97;;;;;;;;;;5052554;28;20446;-69
2022/03/19 03:21:22;;;;;;;17.00;4.53;;;;;;;;;;5072151;28;20048;-69
2022/03/19 03:23:48;;;;;;;16.63;3.85;;;;;;;;;;5053898;28;20044;-69
2022/03/19 03:26:14;;;;;;;14.32;3.78;;;;;;;;;;5054065;28;20048;-69
2022/03/19 03:28:40;;;;;;;20.70;4.60;;;;;;;;;;5071716;28;20611;-69
2022/03/19 03:31:07;;;;;;;13.23;4.05;;;;;;;;;;5052123;28;20029;-69
2022/03/19 03:33:33;;;;;;;14.45;4.47;;;;;;;;;;5053703;28;20032;-69
2022/03/19 03:35:59;;;;;;;13.13;4.20;;;;;;;;;;5069779;28;20044;-69
2022/03/19 03:38:25;;;;;;;14.18;4.13;;;;;;;;;;5053604;28;20052;-69
2022/03/19 03:40:51;;;;;;;21.50;4.72;;;;;;;;;;5050936;28;20048;-69
2022/03/19 03:43:17;;;;;;;15.85;4.70;;;;;;;;;;5053732;28;20044;-69
2022/03/19 03:45:44;;;;;;;12.70;4.47;;;;;;;;;;5071012;28;20497;-69
2022/03/19 03:48:10;;;;;;;13.63;4.47;;;;;;;;;;5072243;28;20412;-69
2022/03/19 03:50:37;;;;;;;15.57;3.88;;;;;;;;;;5050749;28;20040;-69
2022/03/19 03:53:04;;;;;;;15.50;4.82;;;;;;;;;;5071481;28;20112;-69
2022/03/19 03:55:31;;;;;;;17.08;4.32;;;;;;;;;;5053518;28;20104;-69
2022/03/19 03:57:58;;;;;;;14.07;4.88;;;;;;;;;;5053569;28;20587;-69
2022/03/19 04:00:24;;;;;;;17.27;4.32;;;;;;;;;;5070445;28;20041;-68
2022/03/19 04:02:50;;;;;;;11.13;4.10;;;;;;;;;;5070593;28;20124;-69
2022/03/19 04:05:16;;;;;;;12.50;4.28;;;;;;;;;;5052889;28;20106;-69
2022/03/19 04:07:42;;;;;;;17.15;4.32;;;;;;;;;;5052713;28;20523;-69
2022/03/19 04:10:08;;;;;;;18.75;5.03;;;;;;;;;;5052372;28;20109;-69
2022/03/19 04:12:35;;;;;;;15.32;4.93;;;;;;;;;;5053982;28;20141;-69
2022/03/19 04:15:01;;;;;;;12.50;4.55;;;;;;;;;;5071157;28;20044;-69
2022/03/19 04:17:27;;;;;;;20.42;5.25;;;;;;;;;;5054128;28;20070;-69
2022/03/19 04:19:53;;;;;;;16.17;5.20;;;;;;;;;;5053702;28;20044;-69
2022/03/19 04:22:19;;;;;;;14.48;4.65;;;;;;;;;;5053607;28;20040;-69
2022/03/19 04:24:46;;;;;;;16.58;5.00;;;;;;;;;;5053778;28;20040;-69
2022/03/19 04:27:14;;;;;;;17.85;4.82;;;;;;;;;;5073624;28;20107;-69
2022/03/19 04:29:40;;;;;;;14.98;3.95;;;;;;;;;;5035359;28;20040;-69
2022/03/19 04:32:07;;;;;;;16.60;4.65;;;;;;;;;;5071015;28;20032;-69
2022/03/19 04:34:33;;;;;;;18.35;4.80;;;;;;;;;;5052951;28;20044;-71
2022/03/19 04:36:59;;;;;;;17.15;5.10;;;;;;;;;;5075570;28;20082;-69
2022/03/19 04:39:28;;;;;;;13.90;5.20;;;;;;;;;;5053503;28;20040;-69
2022/03/19 04:45:03;;;;;;;16.13;4.60;;;;;;;;;;5048567;28;20036;-69
2022/03/19 04:47:50;;;;;;;20.98;4.85;;;;;;;;;;5053886;28;20090;-69
2022/03/19 04:50:17;;;;;;;15.75;4.88;;;;;;;;;;5053716;28;20086;-70
2022/03/19 04:52:43;;;;;;;12.75;4.80;;;;;;;;;;5036793;28;20064;-68
2022/03/19 04:55:09;;;;;;;14.77;4.47;;;;;;;;;;5076050;28;20064;-70
2022/03/19 04:57:36;;;;;;;18.17;4.93;;;;;;;;;;5075474;28;20049;-69
2022/03/19 05:00:04;;;;;;;17.48;4.97;;;;;;;;;;5045333;28;20492;-71
2022/03/19 05:02:30;;;;;;;14.02;4.70;;;;;;;;;;5072239;28;20097;-69
2022/03/19 05:04:56;;;;;;;12.13;4.13;;;;;;;;;;5056362;28;20361;-69
2022/03/19 05:07:23;;;;;;;14.60;4.50;;;;;;;;;;5040355;28;20094;-69
2022/03/19 05:12:35;;;;;;;14.40;4.65;;;;;;;;;;5056265;28;20036;-69
2022/03/19 05:15:01;;;;;;;12.60;4.90;;;;;;;;;;5075471;28;20068;-69
2022/03/19 05:17:27;;;;;;;14.52;4.93;;;;;;;;;;5056606;28;20052;-69
2022/03/19 05:19:53;;;;;;;12.57;4.55;;;;;;;;;;5073690;28;20036;-69
2022/03/19 05:22:19;;;;;;;14.48;4.95;;;;;;;;;;5057341;28;20044;-69
2022/03/19 05:24:45;;;;;;;16.60;5.15;;;;;;;;;;5056439;28;20074;-69
2022/03/19 05:27:12;;;;;;;20.95;5.15;;;;;;;;;;5074928;28;20075;-69
2022/03/19 05:29:38;;;;;;;18.35;4.45;;;;;;;;;;5057150;28;20063;-69
2022/03/19 05:32:05;;;;;;;17.52;4.82;;;;;;;;;;5054669;28;20048;-69
2022/03/19 05:34:31;;;;;;;15.80;4.97;;;;;;;;;;5053048;28;20044;-69
2022/03/19 05:36:58;;;;;;;13.85;5.07;;;;;;;;;;5056506;28;20040;-69
2022/03/19 05:39:24;;;;;;;14.88;4.55;;;;;;;;;;5028360;28;20501;-68
2022/03/19 05:41:50;;;;;;;12.85;4.40;;;;;;;;;;5069634;28;20381;-69
2022/03/19 05:44:16;;;;;;;13.75;4.38;;;;;;;;;;5059840;28;20075;-69
2022/03/19 05:46:42;;;;;;;15.38;4.72;;;;;;;;;;5056530;28;20051;-69
2022/03/19 05:49:08;;;;;;;15.98;4.47;;;;;;;;;;5036741;28;20567;-69
2022/03/19 05:51:34;;;;;;;10.13;4.45;;;;;;;;;;5054616;28;20033;-69
2022/03/19 05:54:00;;;;;;;17.17;4.20;;;;;;;;;;5053311;28;20051;-70
2022/03/19 05:56:26;;;;;;;16.95;4.38;;;;;;;;;;5035802;28;20128;-69
2022/03/19 05:58:54;;;;;;;11.95;3.80;;;;;;;;;;5035324;28;20390;-70
2022/03/19 06:01:26;;;;;;;11.60;4.28;;;;;;;;;;5034011;28;20053;-69
2022/03/19 06:03:52;;;;;;;17.20;3.92;;;;;;;;;;5033763;28;20072;-69
2022/03/19 06:06:18;;;;;;;13.13;3.92;;;;;;;;;;5017232;28;20496;-69
2022/03/19 06:08:44;;;;;;;15.70;4.43;;;;;;;;;;5052810;28;20045;-69
2022/03/19 06:11:10;;;;;;;12.25;3.88;;;;;;;;;;5033227;28;20036;-69
2022/03/19 06:13:36;;;;;;;15.55;4.00;;;;;;;;;;5033104;28;20394;-69
2022/03/19 06:16:02;;;;;;;15.82;4.15;;;;;;;;;;5035151;28;20103;-69
2022/03/19 06:18:28;;;;;;;14.82;4.35;;;;;;;;;;5051884;28;20047;-69
2022/03/19 06:20:56;;;;;;;18.52;4.35;;;;;;;;;;5032705;28;20394;-69
2022/03/19 06:23:26;;;;;;;12.80;4.53;;;;;;;;;;5008018;28;20163;-69
2022/03/19 06:25:52;;;;;;;12.43;3.78;;;;;;;;;;5034990;28;20482;-69
2022/03/19 06:28:19;;;;;;;17.48;3.97;;;;;;;;;;5034968;28;20079;-69
2022/03/19 06:30:45;;;;;;;11.70;4.25;;;;;;;;;;5035405;28;20048;-69
2022/03/19 06:33:14;;;;;;;12.43;3.38;;;;;;;;;;5034670;28;20040;-69
2022/03/19 06:38:42;;;;;;;10.43;4.53;;;;;;;;;;4957511;28;20046;-69
2022/03/19 06:41:10;;;;;;;13.63;3.80;;;;;;;;;;5033953;28;20076;-69
2022/03/19 06:43:37;;;;;;;16.08;3.63;;;;;;;;;;5034893;28;20553;-69
2022/03/19 06:46:03;;;;;;;15.70;3.78;;;;;;;;;;5034786;28;20123;-69
2022/03/19 06:48:29;;;;;;;12.85;3.30;;;;;;;;;;5064278;28;20144;-69
2022/03/19 06:50:55;;;;;;;12.68;3.67;;;;;;;;;;5051768;28;20054;-69
2022/03/19 06:53:22;;;;;;;9.55;3.70;;;;;;;;;;5057396;28;20489;-69
2022/03/19 06:55:48;;;;;;;12.23;3.53;;;;;;;;;;5057392;28;20037;-69
2022/03/19 06:58:14;;;;;;;15.45;3.65;;;;;;;;;;5039227;28;20540;-69
2022/03/19 07:00:41;;;;;;;13.95;3.55;;;;;;;;;;5034466;28;20114;-69
2022/03/19 07:03:07;;;;;;;12.30;3.92;;;;;;;;;;5068884;28;20059;-69
2022/03/19 07:05:33;;;;;;;12.35;3.97;;;;;;;;;;5052566;28;20028;-69
2022/03/19 07:08:01;;;;;;;14.63;4.22;;;;;;;;;;5038818;28;20128;-69
2022/03/19 07:10:27;;;;;;;9.05;3.20;;;;;;;;;;5033997;28;20106;-69
2022/03/19 07:12:54;;;;;;;15.43;3.92;;;;;;;;;;5038334;28;20040;-69
2022/03/19 07:15:26;;;;;;;20.20;3.70;;;;;;;;;;5050192;28;20040;-69
2022/03/19 07:17:52;;;;;;;14.70;4.18;;;;;;;;;;5026755;28;20138;-68
2022/03/19 07:20:18;;;;;;;15.43;3.97;;;;;;;;;;5034187;28;20384;-67
2022/03/19 07:23:11;;;;;;;13.65;3.53;;;;;;;;;;5068392;28;20047;-67
2022/03/19 07:25:41;;;;;;;13.20;3.28;;;;;;;;;;5042402;28;20128;-66
2022/03/19 07:28:14;;;;;;;14.43;3.47;;;;;;;;;;5064351;28;20429;-67
2022/03/19 07:30:40;;;;;;;14.95;3.72;;;;;;;;;;5033605;28;20037;-68
2022/03/19 07:33:07;;;;;;;12.73;3.53;;;;;;;;;;5029980;28;20381;-68
2022/03/19 07:35:33;;;;;;;20.90;4.38;;;;;;;;;;5035170;28;20037;-67
2022/03/19 07:38:00;;;;;;;18.30;4.47;;;;;;;;;;5035020;28;20451;-68
2022/03/19 07:43:12;;;;;;;17.42;4.22;;;;;;;;;;5044468;28;20053;-67
2022/03/19 07:45:39;;;;;;;12.45;4.00;;;;;;;;;;5033334;28;20519;-68
2022/03/19 07:48:06;;;;;;;14.30;4.35;;;;;;;;;;5043578;28;20133;-68
2022/03/19 07:50:33;;;;;;;16.25;3.83;;;;;;;;;;5039053;28;20373;-67
2022/03/19 07:52:59;;;;;;;16.05;4.22;;;;;;;;;;5040866;28;20129;-67
2022/03/19 07:55:25;;;;;;;19.88;4.88;;;;;;;;;;5025415;28;20126;-68
2022/03/19 07:57:51;;;;;;;17.20;3.80;;;;;;;;;;5044184;28;20052;-68
2022/03/19 08:00:18;;;;;;;13.65;4.18;;;;;;;;;;5040814;28;20123;-68
2022/03/19 08:02:44;;;;;;;15.57;3.97;;;;;;;;;;5044222;28;20044;-68
2022/03/19 08:05:11;;;;;;;13.73;4.07;;;;;;;;;;5056832;28;20039;-68
2022/03/19 08:07:37;;;;;;;13.63;4.35;;;;;;;;;;5057972;28;20048;-68
2022/03/19 08:10:04;;;;;;;11.13;3.38;;;;;;;;;;5050978;28;20108;-68
2022/03/19 08:12:30;;;;;;;9.13;3.30;;;;;;;;;;5031474;28;20033;-68
2022/03/19 08:14:59;;;;;;;9.93;3.67;;;;;;;;;;5020566;28;20051;-68
2022/03/19 08:17:26;;;;;;;17.17;4.60;;;;;;;;;;5016208;28;20076;-68
2022/03/19 08:19:52;;;;;;;13.57;3.67;;;;;;;;;;5052074;28;20040;-68
2022/03/19 08:22:18;;;;;;;11.32;3.53;;;;;;;;;;5034568;28;20069;-68
2022/03/19 08:24:46;;;;;;;13.07;3.40;;;;;;;;;;5051675;28;20485;-68
2022/03/19 08:27:12;;;;;;;11.70;4.10;;;;;;;;;;5034334;28;20099;-68
2022/03/19 08:29:38;;;;;;;13.75;4.05;;;;;;;;;;5037186;28;20113;-68
2022/03/19 08:32:04;;;;;;;12.82;3.60;;;;;;;;;;5052267;28;20069;-68
2022/03/19 08:34:30;;;;;;;12.30;3.50;;;;;;;;;;5055776;28;20037;-68
2022/03/19 08:36:56;;;;;;;9.70;3.63;;;;;;;;;;5038886;28;20388;-68
2022/03/19 08:42:07;;;;;;;13.32;3.58;;;;;;;;;;5037621;28;20095;-68
2022/03/19 08:44:33;;;;;;;13.57;3.40;;;;;;;;;;5038295;28;20048;-68
2022/03/19 08:46:59;;;;;;;12.63;3.50;;;;;;;;;;5057710;28;20056;-68
2022/03/19 08:49:25;;;;;;;8.93;3.47;;;;;;;;;;5076144;28;20400;-68
2022/03/19 08:51:51;;;;;;;14.18;3.60;;;;;;;;;;5074464;28;20093;-68
2022/03/19 08:54:18;;;;;;;16.55;3.15;;;;;;;;;;5038666;28;20041;-68
2022/03/19 08:56:45;;;;;;;11.80;3.50;;;;;;;;;;5057173;28;20036;-68
2022/03/19 08:59:11;;;;;;;12.63;2.83;;;;;;;;;;5074104;28;20040;-69
2022/03/19 09:01:38;;;;;;;13.40;3.50;;;;;;;;;;5055501;28;20044;-69
2022/03/19 09:04:05;;;;;;;14.02;3.58;;;;;;;;;;5057954;28;20055;-69
2022/03/19 09:06:31;;;;;;;15.95;3.78;;;;;;;;;;5075727;28;20041;-69
2022/03/19 09:08:59;;;;;;;16.25;4.05;;;;;;;;;;5057534;28;20085;-69
2022/03/19 09:11:25;;;;;;;11.32;3.08;;;;;;;;;;5075141;28;20044;-70
2022/03/19 09:13:53;;;;;;;10.60;3.47;;;;;;;;;;5075794;28;20810;-69
2022/03/19 09:16:20;;;;;;;10.68;3.15;;;;;;;;;;5075172;28;20047;-69
2022/03/19 09:18:46;;;;;;;11.40;3.60;;;;;;;;;;5057700;28;20107;-69
2022/03/19 09:21:12;;;;;;;12.23;3.58;;;;;;;;;;5057306;28;20074;-69
2022/03/19 09:23:38;;;;;;;16.33;3.72;;;;;;;;;;5057645;28;20040;-69
2022/03/19 09:26:04;;;;;;;12.18;3.60;;;;;;;;;;5057845;28;20036;-69
2022/03/19 09:28:31;;;;;;;14.32;3.90;;;;;;;;;;5057204;28;20070;-69
2022/03/19 09:30:57;;;;;;;8.52;3.38;;;;;;;;;;5057071;28;20048;-69
2022/03/19 09:33:24;;;;;;;9.85;2.88;;;;;;;;;;5056311;28;20044;-69
2022/03/19 09:35:50;;;;;;;15.40;3.10;;;;;;;;;;5075057;28;20401;-69
2022/03/19 09:38:17;;;;;;;12.43;2.67;;;;;;;;;;5075137;28;20044;-69
2022/03/19 09:40:43;;;;;;;8.80;2.45;;;;;;;;;;5056664;28;20044;-69
2022/03/19 09:43:09;;;;;;;10.05;2.58;;;;;;;;;;5056871;28;20044;-69
2022/03/19 09:45:38;;;;;;;11.65;2.95;;;;;;;;;;5075089;28;20036;-69
2022/03/19 09:48:04;;;;;;;12.15;3.58;;;;;;;;;;5056745;28;20048;-69
2022/03/19 09:50:30;;;;;;;13.38;2.83;;;;;;;;;;5073344;28;20617;-69
2022/03/19 09:53:00;;;;;;;12.52;2.60;;;;;;;;;;5073835;28;20040;-69
2022/03/19 09:55:26;;;;;;;9.73;2.72;;;;;;;;;;5063448;28;20049;-69
2022/03/19 09:57:53;;;;;;;11.85;2.80;;;;;;;;;;5057029;28;20408;-70
2022/03/19 10:00:22;;;;;;;9.00;2.50;;;;;;;;;;5056582;28;20045;-69
2022/03/19 10:02:57;;;;;;;10.88;2.80;;;;;;;;;;5064767;28;20081;-69
2022/03/19 10:10:55;;;;;;;9.45;2.70;;;;;;;;;;5054690;28;20189;-69
2022/03/19 10:13:23;;;;;;;9.02;2.40;;;;;;;;;;5051778;28;20458;-69
2022/03/19 10:15:49;;;;;;;9.88;2.55;;;;;;;;;;5072880;28;20052;-69
2022/03/19 10:18:15;;;;;;;9.52;2.33;;;;;;;;;;5056393;28;20041;-70
2022/03/19 10:20:42;;;;;;;9.23;2.75;;;;;;;;;;5056376;28;20048;-71
2022/03/19 10:23:08;;;;;;;9.02;2.67;;;;;;;;;;5074191;28;20040;-69
2022/03/19 10:25:34;;;;;;;11.20;2.90;;;;;;;;;;5056238;28;20040;-69
2022/03/19 10:28:02;;;;;;;12.85;2.30;;;;;;;;;;5055847;28;20091;-69
2022/03/19 10:30:34;;;;;;;9.88;2.85;;;;;;;;;;5055796;28;20029;-69
2022/03/19 10:33:00;;;;;;;8.88;2.70;;;;;;;;;;5052772;28;20072;-69
2022/03/19 10:35:28;;;;;;;8.55;2.40;;;;;;;;;;5053792;28;20098;-69
2022/03/19 10:37:54;;;;;;;7.05;2.55;;;;;;;;;;5055982;28;20044;-69
2022/03/19 10:40:21;;;;;;;9.63;2.95;;;;;;;;;;5074273;28;20043;-69
2022/03/19 10:42:47;;;;;;;8.75;2.15;;;;;;;;;;5074134;28;20045;-69
2022/03/19 10:45:20;;;;;;;6.80;2.00;;;;;;;;;;5073819;28;20541;-70
2022/03/19 10:47:47;;;;;;;8.63;2.50;;;;;;;;;;5055559;28;20056;-69
2022/03/19 10:50:24;;;;;;;9.23;2.78;;;;;;;;;;5055599;28;20071;-69
2022/03/19 10:52:51;;;;;;;7.78;2.30;;;;;;;;;;5055863;28;20540;-69
2022/03/19 10:55:17;;;;;;;7.38;2.25;;;;;;;;;;5041716;28;20046;-69
2022/03/19 10:57:43;;;;;;;8.32;2.28;;;;;;;;;;5057174;28;20044;-69
2022/03/19 11:00:10;;;;;;;8.60;2.28;;;;;;;;;;5055626;28;20044;-69
2022/03/19 11:02:39;;;;;;;12.18;2.50;;;;;;;;;;5039463;28;20070;-69
2022/03/19 11:05:06;;;;;;;6.03;2.05;;;;;;;;;;5046666;28;20505;-69
2022/03/19 11:07:33;;;;;;;10.23;2.10;;;;;;;;;;5062906;28;20044;-69
2022/03/19 11:10:00;;;;;;;5.93;1.85;;;;;;;;;;5053366;28;20037;-69
2022/03/19 11:12:32;;;;;;;9.27;2.17;;;;;;;;;;5053432;28;20056;-69
2022/03/19 11:14:59;;;;;;;7.13;1.83;;;;;;;;;;5057452;28;20485;-69
2022/03/19 11:17:30;;;;;;;4.97;1.90;;;;;;;;;;5055468;28;20091;-69
2022/03/19 11:20:00;;;;;;;6.65;1.83;;;;;;;;;;5052712;28;20496;-69
2022/03/19 11:22:28;;;;;;;6.03;2.05;;;;;;;;;;5053469;28;20131;-69
2022/03/19 11:24:56;;;;;;;7.55;2.22;;;;;;;;;;5071805;28;20123;-69
2022/03/19 11:27:24;;;;;;;6.88;1.88;;;;;;;;;;5055189;28;20041;-70
2022/03/19 11:29:50;;;;;;;8.40;2.10;;;;;;;;;;5054059;28;20440;-69
2022/03/19 11:32:23;;;;;;;6.80;2.20;;;;;;;;;;5056888;28;20431;-70
2022/03/19 11:34:50;;;;;;;8.05;2.33;;;;;;;;;;5053911;28;20849;-70
2022/03/19 11:37:16;;;;;;;7.88;1.92;;;;;;;;;;5054672;28;20548;-70
2022/03/19 11:40:02;;;;;;;5.75;2.30;;;;;;;;;;5051835;28;21761;-69
2022/03/19 11:42:32;;;;;;;4.93;1.70;;;;;;;;;;5041671;28;20090;-70
2022/03/19 11:45:09;;;;;;;6.28;1.85;;;;;;;;;;5053663;28;20084;-70
2022/03/19 11:47:35;;;;;;;7.57;1.90;;;;;;;;;;5037206;28;20051;-69
2022/03/19 11:50:05;;;;;;;5.32;2.17;;;;;;;;;;5053871;28;20032;-70
2022/03/19 11:52:31;;;;;;;11.10;2.35;;;;;;;;;;5053074;28;20542;-70
2022/03/19 11:55:02;;;;;;;5.55;1.70;;;;;;;;;;5071651;28;20045;-70
2022/03/19 11:57:28;;;;;;;6.75;1.48;;;;;;;;;;5050891;28;20049;-70
2022/03/19 12:00:01;;;;;;;6.47;2.03;;;;;;;;;;5052667;28;20518;-70
2022/03/19 12:02:27;;;;;;;4.70;1.50;;;;;;;;;;5054336;28;20489;-70
2022/03/19 12:04:56;;;;;;;4.47;1.77;;;;;;;;;;5055848;28;20512;-70
2022/03/19 12:07:39;;;;;;;4.68;1.77;;;;;;;;;;5051336;28;20052;-70
2022/03/19 12:10:11;;;;;;;6.40;1.90;;;;;;;;;;5037423;28;20036;-70
2022/03/19 12:12:37;;;;;;;4.47;1.65;;;;;;;;;;5071520;28;20097;-70
2022/03/19 12:15:22;;;;;;;7.63;1.67;;;;;;;;;;5053571;28;20166;-70
2022/03/19 12:17:48;;;;;;;4.47;1.40;;;;;;;;;;5037688;28;20051;-70
2022/03/19 12:20:15;;;;;;;5.53;1.55;;;;;;;;;;5035995;28;20059;-70
2022/03/19 12:22:41;;;;;;;6.10;1.48;;;;;;;;;;5037205;28;20401;-70
2022/03/19 12:25:21;;;;;;;5.07;1.52;;;;;;;;;;5053218;28;20097;-70
2022/03/19 12:27:54;;;;;;;5.22;1.65;;;;;;;;;;5053821;28;20040;-70
2022/03/19 12:30:24;;;;;;;7.47;1.88;;;;;;;;;;5054712;28;20033;-70
2022/03/19 12:32:54;;;;;;;6.70;1.77;;;;;;;;;;5052307;28;20037;-70
2022/03/19 12:35:24;;;;;;;6.25;1.80;;;;;;;;;;5048445;28;20049;-69
2022/03/19 12:37:52;;;;;;;5.43;1.60;;;;;;;;;;5053734;28;20047;-69
2022/03/19 12:40:24;;;;;;;6.65;1.75;;;;;;;;;;5054989;28;20079;-69
2022/03/19 12:42:59;;;;;;;6.40;1.80;;;;;;;;;;5051538;28;20055;-70
2022/03/19 12:45:38;;;;;;;4.03;1.30;;;;;;;;;;5051799;28;20042;-70
2022/03/19 12:48:10;;;;;;;3.28;1.20;;;;;;;;;;5034754;28;20414;-70
2022/03/19 12:50:36;;;;;;;5.28;1.30;;;;;;;;;;5054647;28;20463;-69
2022/03/19 12:53:02;;;;;;;4.82;1.65;;;;;;;;;;5053301;28;20037;-70
2022/03/19 12:55:29;;;;;;;4.30;1.55;;;;;;;;;;5052806;28;20033;-70
2022/03/19 12:57:59;;;;;;;5.15;1.50;;;;;;;;;;5071358;28;20064;-70
2022/03/19 13:00:25;;;;;;;3.75;1.50;;;;;;;;;;5049372;28;20047;-71
2022/03/19 13:02:52;;;;;;;5.40;1.52;;;;;;;;;;5052512;28;20044;-70
2022/03/19 13:05:18;;;;;;;7.35;2.45;;;;;;;;;;5054006;28;20045;-70
2022/03/19 13:08:03;;;;;;;6.70;3.15;;;;;;;;;;5049885;28;20047;-70
2022/03/19 13:10:30;;;;;;;5.18;2.15;;;;;;;;;;5030220;28;20451;-70
2022/03/19 13:13:03;;;;;;;4.78;1.98;;;;;;;;;;5036843;28;20094;-70
2022/03/19 13:15:29;;;;;;;5.40;1.60;;;;;;;;;;5049977;28;20123;-70
2022/03/19 13:17:55;;;;;;;4.00;1.58;;;;;;;;;;5052075;28;20370;-70
2022/03/19 13:20:21;;;;;;;4.32;1.77;;;;;;;;;;5055544;28;20044;-70
2022/03/19 13:22:47;;;;;;;4.07;1.95;;;;;;;;;;5049184;28;20094;-71
2022/03/19 13:25:13;;;;;;;4.20;1.42;;;;;;;;;;5055446;28;20089;-69
2022/03/19 13:27:39;;;;;;;3.92;1.52;;;;;;;;;;5039808;28;20032;-70
2022/03/19 13:30:11;;;;;;;4.80;1.67;;;;;;;;;;5056753;28;20048;-69
2022/03/19 13:32:37;;;;;;;4.20;1.70;;;;;;;;;;5057873;28;20078;-70
2022/03/19 13:35:04;;;;;;;4.00;1.98;;;;;;;;;;5057168;28;20040;-70
2022/03/19 13:37:39;;;;;;;4.05;1.50;;;;;;;;;;5057171;28;20493;-70
2022/03/19 13:40:07;;;;;;;4.18;1.58;;;;;;;;;;5057454;28;20477;-70
2022/03/19 13:42:44;;;;;;;4.32;1.58;;;;;;;;;;5040906;28;20362;-69
2022/03/19 13:45:11;;;;;;;4.88;1.70;;;;;;;;;;5074930;28;20044;-70
2022/03/19 13:47:50;;;;;;;6.22;1.42;;;;;;;;;;5063528;28;20147;-70
2022/03/19 13:50:17;;;;;;;6.70;1.58;;;;;;;;;;5057148;28;20059;-70
2022/03/19 13:52:45;;;;;;;6.70;1.60;;;;;;;;;;5074921;28;20048;-70
2022/03/19 13:55:14;;;;;;;5.78;1.70;;;;;;;;;;5075252;28;20060;-70
2022/03/19 13:57:45;;;;;;;3.88;1.58;;;;;;;;;;5056625;28;20159;-70
2022/03/19 14:00:16;;;;;;;11.60;2.38;;;;;;;;;;5056292;28;20044;-70
2022/03/19 14:02:43;;;;;;;4.25;1.80;;;;;;;;;;5074719;28;20036;-70
2022/03/19 14:05:11;;;;;;;5.18;1.60;;;;;;;;;;5074415;28;20029;-69
2022/03/19 14:07:38;;;;;;;5.65;1.50;;;;;;;;;;5072918;28;20044;-70
2022/03/19 14:10:09;;;;;;;7.10;1.88;;;;;;;;;;5035350;28;20037;-70
2022/03/19 14:12:35;;;;;;;3.45;1.60;;;;;;;;;;5071611;28;20444;-71
2022/03/19 14:15:03;;;;;;;6.50;2.20;;;;;;;;;;5055227;28;20036;-71
2022/03/19 14:17:48;;;;;;;4.60;1.75;;;;;;;;;;5054987;28;20047;-71
2022/03/19 14:20:15;;;;;;;6.00;1.92;;;;;;;;;;5055501;28;20044;-71
2022/03/19 14:22:41;;;;;;;5.38;2.08;;;;;;;;;;5056686;28;20123;-71
2022/03/19 14:25:08;;;;;;;5.47;1.73;;;;;;;;;;5069656;28;20041;-71
2022/03/19 14:27:34;;;;;;;3.72;1.52;;;;;;;;;;5055621;28;20089;-71
2022/03/19 14:30:00;;;;;;;2.78;1.23;;;;;;;;;;5054493;28;20126;-71
2022/03/19 14:32:26;;;;;;;6.38;1.65;;;;;;;;;;5056820;28;20453;-71
2022/03/19 14:34:52;;;;;;;4.78;1.70;;;;;;;;;;5051149;28;20477;-71
2022/03/19 14:37:18;;;;;;;5.85;1.92;;;;;;;;;;5037886;28;20076;-71
2022/03/19 14:39:44;;;;;;;6.03;1.63;;;;;;;;;;5048752;28;20041;-71
2022/03/19 14:42:10;;;;;;;7.03;1.98;;;;;;;;;;5045453;28;20045;-71
2022/03/19 14:44:36;;;;;;;6.78;1.90;;;;;;;;;;5055261;28;20044;-71
2022/03/19 14:47:02;;;;;;;5.82;1.80;;;;;;;;;;5045489;28;20057;-70
2022/03/19 14:49:29;;;;;;;5.13;1.80;;;;;;;;;;5033845;28;20057;-71
2022/03/19 14:51:56;;;;;;;4.75;1.60;;;;;;;;;;5036012;28;20099;-71
2022/03/19 14:54:22;;;;;;;6.72;1.75;;;;;;;;;;5035917;28;20108;-71
2022/03/19 14:56:48;;;;;;;6.47;1.73;;;;;;;;;;5035685;28;20029;-71